Aviation Digital Data Service (ADDS)

Output produced by METARs form (0531 UTC 21 April 2014)
found at http://aviationweather.gov/adds/metars/
 
KBGR 202320Z 2100/2124 19008KT P6SM SCT120 BKN200 
     FM211500 20010KT P6SM BKN090